Aérodrome :
LOGIN :

S'inscrire | Disclaimer

   EN    FR    IT 

 










Légende :    VFR   VFR Marginal   IFR   IFR Intensif   IFR Très Intensif
Visi : 
Plafond : 
>= 8 km
>= 3000ft
5 à 8 km
1000 à 3000 ft
1500m à 5 km
500 à 1000 ft
800 à 1500m
200 à 500 ft
< 800m
< 200 ft
Symboles :   Orages  Brouillard  Fortes neiges  Fortes précipitations  Vent > 20 kt
SIGMETs :   Divers  Orages  Givrage  Turbulence  Onde Orograph.  Cendres Volcan.







- Altitude de l'aérodrome : 160 ft
- Code IATA : LRT
- Voir les cartes d'approche


LFRH - Lorient Lann Bihoue

DERNIER METAR :
  • 180300Z AUTO 09005KT CAVOK 01/M00 Q1019 NOSIG

METARs EXPIRÉS :
  • 180230Z AUTO 09003KT CAVOK 01/M00 Q1020 NOSIG
  • 180200Z AUTO 08003KT CAVOK 01/M01 Q1020 NOSIG
  • 180130Z AUTO 10004KT CAVOK 01/M01 Q1020 NOSIG
  • 180100Z AUTO 09004KT CAVOK 01/M01 Q1020 NOSIG
  • 180030Z AUTO 07003KT CAVOK 01/M01 Q1020 NOSIG

TAF TAF LFRH
Valide du 18 à 00h jusqu'au 19 à 00h UTC


172300Z 1800/1824 VRB03KT CAVOK
BECMG 1806/1808 12010KT BKN020 OVC030
TEMPO 1808/1814 5000 RA SCT015 OVC020
BECMG 1812/1814 16010G20KT
BECMG 1814/1816 3000 RA BKN010TCU OVC020
BECMG 1818/1820 10010KT 9999 NSW OVC010
TEMPO 1820/1822 5000 SHRA
Pas de NOTAMs connus pour ce terrain.



MET'MAP, la Météo Aéronautique d'un coup d'oeil ! - Copyright ORBIFLY Décembre 2007 - Disclaimer

ORBIFLY MET'MAP TEAM :

Programmation & Développement : Alexandra Zaïnal
Conception & Développement : Baudouin d'Aumeries
Co-Programmation & Développement : Marc-Olivier Méhu
Soutien technique & logistique : Manuel Goepfert

Contact : metmap@orbifly.com




SOURCES & CREDITS :

   NOAA